This is the latest recevied weather packets stored in our database for station/object 9M2RSI-1. If no packets are shown the sender has not sent any weather packets the latest 10 day(s).
| Time | Temp. | Humidity | Pressure | Rain* | Wind** | Luminosity | Snow |
|---|---|---|---|---|---|---|---|
| 1777382407 | 31.67° C | 60% | 1009.5 hPa | - | - | - | - |
| 1777381507 | 31.67° C | 60% | 1009.2 hPa | - | - | - | - |
| 1777380607 | 31.67° C | 59% | 1009 hPa | - | - | - | - |
| 1777379707 | 32.22° C | 58% | 1008.7 hPa | - | - | - | - |
| 1777378807 | 32.22° C | 59% | 1008.8 hPa | - | - | - | - |
| 1777377907 | 32.22° C | 58% | 1008.6 hPa | - | - | - | - |
| 1777377007 | 32.22° C | 58% | 1008.2 hPa | - | - | - | - |
| 1777376107 | 32.78° C | 58% | 1008 hPa | - | - | - | - |
| 1777375207 | 32.78° C | 57% | 1007.7 hPa | - | - | - | - |
| 1777374307 | 32.78° C | 57% | 1007.6 hPa | - | - | - | - |
| 1777373407 | 32.78° C | 56% | 1007.3 hPa | - | - | - | - |
| 1777372507 | 33.33° C | 55% | 1007 hPa | - | - | - | - |
| 1777371606 | 33.33° C | 55% | 1006.8 hPa | - | - | - | - |
| 1777370706 | 33.33° C | 55% | 1006.9 hPa | - | - | - | - |
| 1777369806 | 33.89° C | 54% | 1006.3 hPa | - | - | - | - |
| 1777368899 | 33.89° C | 53% | 1005.9 hPa | - | - | - | - |
| 1777367999 | 34.44° C | 51% | 1006.2 hPa | - | - | - | - |
| 1777367099 | 34.44° C | 51% | 1006 hPa | - | - | - | - |
| 1777366199 | 35° C | 50% | 1005.7 hPa | - | - | - | - |
| 1777365298 | 35° C | 49% | 1006 hPa | - | - | - | - |
| 1777364398 | 35.56° C | 47% | 1006 hPa | - | - | - | - |
| 1777363498 | 35.56° C | 48% | 1006.2 hPa | - | - | - | - |
| 1777362598 | 35° C | 49% | 1006.2 hPa | - | - | - | - |
| 1777350014 | 32.22° C | 61% | 1010.1 hPa | - | - | - | - |
| 1777349114 | 32.78° C | 63% | 1010.3 hPa | - | - | - | - |
* Rain since midnight (hover to see other rain measurements)
** Current wind speed in m/s (hover to see current wind gust speed)